createdAt,value
2022-12-08T00:06:10.674Z,98.74
2022-12-08T00:16:13.731Z,98.59
2022-12-08T00:26:17.881Z,98.57
2022-12-08T00:36:20.616Z,98.71
2022-12-08T00:46:24.722Z,98.52
2022-12-08T00:56:27.839Z,98.82
2022-12-08T01:06:31.976Z,98.70
2022-12-08T01:16:37.076Z,98.06
2022-12-08T01:26:41.768Z,98.35
2022-12-08T01:36:44.733Z,98.70
2022-12-08T01:46:49.197Z,98.54
2022-12-08T01:56:59.682Z,98.35
2022-12-08T02:07:08.149Z,98.06
2022-12-08T02:17:25.649Z,98.68
2022-12-08T02:27:44.135Z,98.28
2022-12-08T02:37:55.624Z,98.20
2022-12-08T02:47:59.965Z,98.65
2022-12-08T02:58:30.868Z,99.82
2022-12-08T03:08:40.459Z,99.77
2022-12-08T03:18:51.061Z,99.90
2022-12-08T03:28:53.977Z,100.16
2022-12-08T03:38:58.039Z,100.26
2022-12-08T03:49:01.021Z,99.95
2022-12-08T03:59:06.205Z,100.31
2022-12-08T04:09:08.911Z,100.22
2022-12-08T04:19:12.899Z,100.25
2022-12-08T04:29:15.659Z,99.93
2022-12-08T04:39:19.829Z,100.25
2022-12-08T04:49:22.523Z,100.37
2022-12-08T04:59:26.633Z,100.42
2022-12-08T05:09:30.293Z,100.35
2022-12-08T05:19:34.343Z,100.49
2022-12-08T05:29:37.095Z,100.29
2022-12-08T05:39:41.187Z,99.90
2022-12-08T05:49:43.868Z,99.29
2022-12-08T05:59:47.916Z,100.28
2022-12-08T06:09:50.580Z,100.53
2022-12-08T06:19:54.629Z,100.71
2022-12-08T06:29:57.563Z,100.45
2022-12-08T06:40:02.093Z,100.48
2022-12-08T06:50:06.287Z,100.32
2022-12-08T07:00:12.376Z,100.32
2022-12-08T07:10:15.067Z,100.22
2022-12-08T07:20:19.332Z,100.02
2022-12-08T07:30:22.030Z,99.87
2022-12-08T07:40:26.049Z,100.30
2022-12-08T07:50:28.800Z,99.82
2022-12-08T08:00:32.813Z,99.90
2022-12-08T08:10:35.497Z,99.97
2022-12-08T08:20:39.529Z,100.03
2022-12-08T08:30:42.371Z,99.67
2022-12-08T08:40:46.653Z,99.52
2022-12-08T08:50:49.363Z,99.51
2022-12-08T09:00:53.423Z,99.57
2022-12-08T09:10:57.030Z,99.61
2022-12-08T09:21:06.822Z,99.61
2022-12-08T09:31:09.561Z,99.35
2022-12-08T09:41:17.589Z,99.42
2022-12-08T09:51:20.633Z,99.16
2022-12-08T10:01:28.590Z,98.87
2022-12-08T10:11:40.321Z,98.42
2022-12-08T10:21:44.365Z,97.58
2022-12-08T10:31:47.171Z,96.32
2022-12-08T10:41:52.638Z,96.58
2022-12-08T10:51:55.381Z,94.72
2022-12-08T11:02:01.125Z,93.86
2022-12-08T11:12:09.084Z,92.98
2022-12-08T11:22:25.061Z,92.53
2022-12-08T11:32:27.718Z,89.80
2022-12-08T11:42:36.310Z,89.15
2022-12-08T11:52:46.050Z,90.47
2022-12-08T12:02:57.483Z,87.93
2022-12-08T12:13:10.755Z,87.53
2022-12-08T12:23:20.730Z,87.30
2022-12-08T12:33:24.127Z,69.20
2022-12-08T12:43:32.668Z,59.74
2022-12-08T12:53:50.264Z,50.74
2022-12-08T13:04:05.847Z,56.91
2022-12-08T13:14:33.451Z,54.91
2022-12-08T13:24:37.607Z,71.22
2022-12-08T13:34:42.473Z,69.38
2022-12-08T13:45:19.104Z,68.72
2022-12-08T14:16:07.237Z,77.20
2022-12-08T14:26:13.839Z,79.30
2022-12-08T14:36:18.191Z,81.07
2022-12-08T14:46:23.800Z,82.10
2022-12-08T14:56:29.496Z,82.94
2022-12-08T15:06:33.710Z,83.55
2022-12-08T15:16:42.793Z,84.28
2022-12-08T15:26:48.923Z,84.93
2022-12-08T15:36:53.459Z,85.34
2022-12-08T15:46:58.996Z,85.48
2022-12-08T16:07:27.967Z,86.45
2022-12-08T16:17:31.073Z,87.30
2022-12-08T16:38:01.072Z,87.57
2022-12-08T16:48:05.548Z,87.80
2022-12-08T16:58:08.294Z,88.37
2022-12-08T17:08:13.923Z,88.48
2022-12-08T17:18:16.629Z,88.80
2022-12-08T17:28:37.286Z,88.85
2022-12-08T17:38:43.747Z,89.01
2022-12-08T17:48:47.953Z,88.94
2022-12-08T17:58:54.679Z,89.23
2022-12-08T18:09:00.101Z,89.32
2022-12-08T18:19:02.770Z,89.28
2022-12-08T18:29:06.937Z,89.55
2022-12-08T18:39:22.455Z,89.82
2022-12-08T18:49:26.549Z,89.86
2022-12-08T18:59:29.240Z,89.90
2022-12-08T19:09:33.261Z,89.93
2022-12-08T19:19:36.417Z,89.89
2022-12-08T19:29:40.438Z,89.76
2022-12-08T19:40:00.488Z,89.82
2022-12-08T19:50:23.591Z,90.06
2022-12-08T20:00:26.637Z,89.86
2022-12-08T20:10:33.816Z,89.88
2022-12-08T20:20:36.623Z,89.86
2022-12-08T20:30:42.031Z,89.85
2022-12-08T20:40:47.236Z,89.76
2022-12-08T20:50:53.134Z,89.75
2022-12-08T21:00:56.028Z,89.74
2022-12-08T21:11:00.249Z,89.62
2022-12-08T21:21:04.566Z,89.41
2022-12-08T21:31:09.881Z,89.45
2022-12-08T21:41:14.581Z,89.82
2022-12-08T21:51:18.847Z,89.76
2022-12-08T22:01:21.556Z,89.59
2022-12-08T22:11:26.078Z,89.63
2022-12-08T22:21:29.389Z,89.70
2022-12-08T22:31:33.530Z,89.61
2022-12-08T22:41:37.057Z,89.45
2022-12-08T22:51:41.258Z,89.46
2022-12-08T23:01:44.053Z,89.67
2022-12-08T23:11:48.497Z,89.79
2022-12-08T23:21:51.702Z,89.95
2022-12-08T23:31:56.145Z,90.15
2022-12-08T23:41:58.894Z,90.02
2022-12-08T23:52:03.118Z,89.99
